Time;durP1;ratioP1;P1;durP2;ratioP2;P2;SDS_P1;SDS_P2;PMS_P1;PMS_P2;Temp;Humidity;BMP_temperature;BMP_pressure;BME280_temperature;BME280_humidity;BME280_pressure;Samples;Min_cycle;Max_cycle;Signal;HPM_P1;HPM_P2
2023/07/30 00:02:12;;;;;;;11.13;10.33;;;19.60;99.90;;;;;;10285924;28;20251;-86
2023/07/30 00:07:15;;;;;;;9.87;9.47;;;19.60;99.90;;;;;;10274292;28;20206;-86
2023/07/30 00:12:18;;;;;;;9.90;9.50;;;19.50;99.90;;;;;;10301866;28;20228;-86
2023/07/30 00:17:20;;;;;;;8.87;8.47;;;19.40;99.90;;;;;;10281457;28;20231;-84
2023/07/30 00:22:22;;;;;;;9.20;8.70;;;19.30;99.90;;;;;;10267623;28;20247;-85
2023/07/30 00:27:26;;;;;;;9.50;9.10;;;19.10;99.90;;;;;;10270133;28;20189;-85
2023/07/30 00:32:28;;;;;;;9.93;9.43;;;19.00;99.90;;;;;;10255956;28;20253;-86
2023/07/30 00:37:30;;;;;;;9.57;9.07;;;18.90;99.90;;;;;;10276426;28;20238;-85
2023/07/30 00:42:34;;;;;;;10.13;9.63;;;19.00;99.90;;;;;;10270365;28;20240;-86
2023/07/30 00:47:37;;;;;;;10.07;9.57;;;19.00;99.90;;;;;;10284829;28;20208;-87
2023/07/30 00:52:39;;;;;;;10.60;9.90;;;19.00;99.90;;;;;;10276814;28;20233;-85
2023/07/30 00:57:44;;;;;;;10.50;10.00;;;19.10;99.90;;;;;;10283661;28;20244;-86
2023/07/30 01:02:46;;;;;;;11.83;11.10;;;19.10;99.90;;;;;;10275713;28;20432;-87
2023/07/30 01:07:48;;;;;;;11.50;10.90;;;19.10;99.90;;;;;;10265765;28;20272;-86
2023/07/30 01:12:52;;;;;;;12.10;11.40;;;19.10;99.90;;;;;;10266463;28;20233;-87
2023/07/30 01:17:54;;;;;;;14.10;12.83;;;19.20;99.90;;;;;;10274186;28;20735;-86
2023/07/30 01:22:58;;;;;;;12.80;11.90;;;19.30;99.90;;;;;;10272172;28;20557;-85
2023/07/30 01:28:02;;;;;;;12.10;11.40;;;19.40;99.90;;;;;;10261056;28;20240;-87
2023/07/30 01:33:05;;;;;;;11.60;11.00;;;19.50;99.90;;;;;;10266575;28;20239;-86
2023/07/30 01:38:10;;;;;;;12.30;11.50;;;19.50;99.90;;;;;;10265245;28;20217;-85
2023/07/30 01:43:13;;;;;;;12.07;11.27;;;19.60;99.90;;;;;;10268076;28;20224;-86
2023/07/30 01:48:15;;;;;;;11.70;11.10;;;19.60;99.90;;;;;;10266913;28;20229;-87
2023/07/30 01:53:19;;;;;;;12.50;11.80;;;19.60;99.90;;;;;;10265166;28;20631;-88
2023/07/30 01:58:21;;;;;;;11.90;11.10;;;19.60;99.90;;;;;;10267588;28;20346;-87
2023/07/30 02:03:23;;;;;;;12.10;11.37;;;19.60;99.90;;;;;;10281493;28;20233;-85
2023/07/30 02:08:26;;;;;;;11.10;10.40;;;19.60;99.90;;;;;;10284134;28;20585;-86
2023/07/30 02:13:29;;;;;;;12.23;11.57;;;19.70;99.90;;;;;;10284962;28;20265;-86
2023/07/30 02:18:31;;;;;;;14.53;12.40;;;19.70;99.90;;;;;;10273215;28;20229;-85
2023/07/30 02:23:34;;;;;;;12.13;11.13;;;19.70;99.90;;;;;;10273757;28;20239;-84
2023/07/30 02:28:36;;;;;;;11.50;10.90;;;19.70;99.90;;;;;;10269061;28;20622;-86
2023/07/30 02:33:38;;;;;;;11.67;11.07;;;19.70;99.90;;;;;;10272581;28;20275;-86
2023/07/30 02:38:42;;;;;;;11.40;10.70;;;19.70;99.90;;;;;;10289395;28;20224;-85
2023/07/30 02:43:44;;;;;;;12.43;11.63;;;19.70;99.90;;;;;;10274114;28;20225;-87
2023/07/30 02:48:46;;;;;;;12.40;11.70;;;19.70;99.90;;;;;;10286236;28;20212;-86
2023/07/30 02:53:53;;;;;;;10.67;10.07;;;19.70;99.90;;;;;;10270613;28;20259;-85
2023/07/30 02:58:55;;;;;;;10.70;10.10;;;19.70;99.90;;;;;;10258179;28;20705;-85
2023/07/30 03:03:57;;;;;;;9.87;9.27;;;19.70;99.90;;;;;;10284519;28;20232;-85
2023/07/30 03:09:00;;;;;;;10.87;10.27;;;19.60;99.90;;;;;;10269481;28;20232;-85
2023/07/30 03:14:02;;;;;;;11.67;11.07;;;19.60;99.90;;;;;;10239553;28;20224;-84
2023/07/30 03:19:05;;;;;;;11.30;10.60;;;19.60;99.90;;;;;;10283921;28;20225;-86
2023/07/30 03:24:08;;;;;;;11.93;11.17;;;19.50;99.90;;;;;;10270712;28;20236;-87
2023/07/30 03:29:11;;;;;;;12.30;11.50;;;19.50;99.90;;;;;;10268259;28;20205;-86
2023/07/30 03:34:13;;;;;;;11.10;10.50;;;19.60;99.90;;;;;;10265271;28;20264;-84
2023/07/30 03:39:17;;;;;;;12.13;11.43;;;19.60;99.90;;;;;;10275701;28;20224;-85
2023/07/30 03:44:19;;;;;;;11.53;10.87;;;19.60;99.90;;;;;;10274547;28;21028;-86
2023/07/30 03:49:21;;;;;;;10.40;9.90;;;19.60;99.90;;;;;;10269048;28;20213;-85
2023/07/30 03:54:25;;;;;;;10.37;9.77;;;19.60;99.90;;;;;;10275890;28;20205;-86
2023/07/30 03:59:29;;;;;;;10.93;10.33;;;19.60;99.90;;;;;;10264804;28;20315;-85
2023/07/30 04:04:31;;;;;;;11.17;10.57;;;19.60;99.90;;;;;;10249530;28;20216;-85
2023/07/30 04:09:37;;;;;;;10.90;10.20;;;19.60;99.90;;;;;;10256532;28;20276;-85
2023/07/30 04:14:39;;;;;;;10.83;9.80;;;19.60;99.90;;;;;;10272838;28;20223;-84
2023/07/30 04:19:41;;;;;;;10.40;9.83;;;19.60;99.90;;;;;;10261525;28;20228;-85
2023/07/30 04:24:44;;;;;;;11.13;10.43;;;19.60;99.90;;;;;;10265012;28;20205;-85
2023/07/30 04:29:46;;;;;;;10.20;9.63;;;19.50;99.90;;;;;;10266760;28;20224;-84
2023/07/30 04:34:49;;;;;;;8.47;8.07;;;19.50;99.90;;;;;;10266283;28;20224;-85
2023/07/30 04:39:52;;;;;;;9.03;8.53;;;19.40;99.90;;;;;;10252136;28;20706;-86
2023/07/30 04:44:55;;;;;;;8.50;8.00;;;19.40;99.90;;;;;;10257570;28;20228;-86
2023/07/30 04:49:57;;;;;;;8.83;8.20;;;19.40;99.90;;;;;;10241510;28;20232;-86
2023/07/30 04:55:00;;;;;;;8.73;8.13;;;19.40;99.90;;;;;;10272992;28;20220;-87
2023/07/30 05:00:03;;;;;;;9.57;9.07;;;19.40;99.90;;;;;;10270206;28;20241;-85
2023/07/30 05:05:05;;;;;;;10.83;10.33;;;19.50;99.90;;;;;;10265523;28;20212;-85
2023/07/30 05:10:10;;;;;;;10.03;9.43;;;19.60;99.90;;;;;;10253845;28;20772;-87
2023/07/30 05:15:12;;;;;;;10.10;9.40;;;19.70;99.90;;;;;;10252280;28;20204;-85
2023/07/30 05:20:15;;;;;;;10.67;9.97;;;19.80;99.90;;;;;;10252364;28;20237;-85
2023/07/30 05:25:18;;;;;;;10.43;9.77;;;19.80;99.90;;;;;;10252443;28;20209;-86
2023/07/30 05:30:20;;;;;;;10.40;9.90;;;19.90;99.90;;;;;;10252340;28;20295;-88
2023/07/30 05:35:22;;;;;;;11.20;10.60;;;19.90;99.90;;;;;;10242777;28;20279;-85
2023/07/30 05:40:26;;;;;;;11.37;10.50;;;19.90;99.90;;;;;;10228198;28;20232;-85
2023/07/30 05:45:28;;;;;;;9.43;9.03;;;19.90;99.90;;;;;;10259514;28;20207;-85
2023/07/30 05:50:30;;;;;;;9.80;9.30;;;20.00;99.90;;;;;;10262087;28;20220;-85
2023/07/30 05:55:33;;;;;;;10.77;10.17;;;20.10;99.90;;;;;;10258944;28;20208;-85
2023/07/30 06:00:35;;;;;;;11.33;9.40;;;20.10;99.90;;;;;;10258411;28;20319;-86
2023/07/30 06:05:41;;;;;;;10.93;10.37;;;20.10;99.90;;;;;;10273969;28;20255;-87
2023/07/30 06:10:46;;;;;;;10.70;10.10;;;20.10;99.90;;;;;;10259980;28;20228;-86
2023/07/30 06:15:48;;;;;;;10.47;9.83;;;20.20;99.90;;;;;;10253499;28;20200;-85
2023/07/30 06:20:50;;;;;;;10.77;10.07;;;20.30;99.90;;;;;;10275274;28;20233;-85
2023/07/30 06:25:54;;;;;;;11.30;10.70;;;20.30;99.90;;;;;;10260747;28;20556;-86
2023/07/30 06:30:56;;;;;;;9.73;9.23;;;20.40;99.90;;;;;;10259100;28;20221;-87
2023/07/30 06:35:58;;;;;;;9.63;9.13;;;20.30;99.90;;;;;;10261829;28;20644;-87
2023/07/30 06:41:01;;;;;;;8.40;7.90;;;20.40;99.90;;;;;;10272054;28;20301;-87
2023/07/30 06:46:04;;;;;;;9.50;8.53;;;20.30;99.90;;;;;;10264029;28;20234;-87
2023/07/30 06:51:07;;;;;;;8.27;7.87;;;20.40;99.90;;;;;;10263434;28;20229;-87
2023/07/30 06:56:10;;;;;;;8.20;7.70;;;20.60;99.90;;;;;;10258990;28;20209;-85
2023/07/30 07:01:13;;;;;;;8.20;7.63;;;20.70;99.90;;;;;;10257331;28;20239;-85
2023/07/30 07:06:15;;;;;;;7.23;6.93;;;20.70;99.90;;;;;;10267431;28;20988;-91
2023/07/30 07:11:18;;;;;;;6.90;6.60;;;20.70;99.90;;;;;;10232808;28;20242;-86
2023/07/30 07:16:21;;;;;;;6.70;6.40;;;20.70;99.90;;;;;;10265453;28;20660;-85
2023/07/30 07:21:23;;;;;;;6.30;6.00;;;20.70;99.90;;;;;;10257537;28;20240;-86
2023/07/30 07:26:26;;;;;;;6.03;5.73;;;20.70;99.90;;;;;;10260691;28;20296;-85
2023/07/30 07:31:28;;;;;;;5.53;5.33;;;20.70;99.90;;;;;;10257989;28;20783;-86
2023/07/30 07:36:30;;;;;;;5.07;4.77;;;20.80;99.90;;;;;;10271315;28;20220;-85
2023/07/30 07:41:34;;;;;;;5.33;5.00;;;20.80;99.90;;;;;;10258685;28;20229;-88
2023/07/30 07:46:36;;;;;;;5.50;5.20;;;20.80;99.90;;;;;;10275848;28;20213;-85
2023/07/30 07:51:38;;;;;;;5.00;4.70;;;20.70;99.90;;;;;;10254040;28;20861;-87
2023/07/30 07:56:42;;;;;;;4.80;4.43;;;20.60;99.90;;;;;;10253176;28;20579;-84
2023/07/30 08:01:44;;;;;;;5.03;4.73;;;20.60;99.90;;;;;;10253846;28;20304;-87
2023/07/30 08:06:46;;;;;;;5.40;5.00;;;20.70;99.90;;;;;;10250940;28;20205;-86
2023/07/30 08:11:49;;;;;;;5.57;5.27;;;20.90;99.90;;;;;;10250739;28;20723;-87
2023/07/30 08:16:51;;;;;;;6.00;5.70;;;21.20;99.90;;;;;;10252155;28;20220;-87
2023/07/30 08:21:56;;;;;;;5.20;5.00;;;21.50;99.90;;;;;;10250819;28;20647;-88
2023/07/30 08:27:00;;;;;;;5.07;4.80;;;21.80;99.90;;;;;;10252292;28;20242;-87
2023/07/30 08:32:02;;;;;;;4.07;3.77;;;22.20;99.90;;;;;;10250589;28;20225;-85
2023/07/30 08:37:04;;;;;;;4.07;3.87;;;22.60;99.90;;;;;;10265651;28;20228;-85
2023/07/30 08:42:08;;;;;;;3.90;3.70;;;22.90;99.90;;;;;;10250337;28;20221;-88
2023/07/30 08:47:11;;;;;;;3.20;3.00;;;23.10;99.90;;;;;;10249932;28;20260;-86
2023/07/30 08:52:14;;;;;;;2.80;2.70;;;23.40;99.90;;;;;;10250015;28;20892;-88
2023/07/30 08:57:18;;;;;;;2.33;2.23;;;23.60;99.90;;;;;;10250545;28;20710;-85
2023/07/30 09:02:31;;;;;;;2.63;2.53;;;23.70;99.90;;;;;;10249893;28;20323;-85
2023/07/30 09:07:33;;;;;;;2.50;2.40;;;23.80;99.90;;;;;;10258227;28;20672;-85
2023/07/30 09:12:37;;;;;;;2.70;2.50;;;24.10;99.90;;;;;;10259533;28;20233;-86
2023/07/30 09:17:39;;;;;;;2.90;2.70;;;24.20;99.90;;;;;;10249375;28;20317;-85
2023/07/30 09:22:41;;;;;;;2.90;2.33;;;24.50;99.90;;;;;;10249420;28;20339;-85
2023/07/30 09:27:48;;;;;;;2.80;2.33;;;24.80;99.90;;;;;;10257359;28;20215;-86
2023/07/30 09:32:53;;;;;;;2.23;2.13;;;24.70;99.90;;;;;;10264640;28;20273;-89
2023/07/30 09:37:59;;;;;;;2.17;2.07;;;24.70;99.90;;;;;;10253698;28;20240;-85
2023/07/30 09:43:04;;;;;;;2.43;2.33;;;24.50;99.90;;;;;;10251932;28;20280;-86
2023/07/30 09:48:07;;;;;;;2.90;2.73;;;24.20;99.90;;;;;;10252929;28;20205;-86
2023/07/30 09:53:11;;;;;;;2.70;2.50;;;24.00;99.90;;;;;;10257501;28;20247;-86
2023/07/30 09:58:14;;;;;;;2.80;2.70;;;23.70;99.90;;;;;;10251915;28;21510;-85
2023/07/30 10:03:17;;;;;;;2.90;2.70;;;23.50;99.90;;;;;;10252244;28;20232;-85
2023/07/30 10:08:25;;;;;;;2.30;2.20;;;23.60;99.90;;;;;;10249967;28;20701;-86
2023/07/30 10:13:28;;;;;;;3.63;2.67;;;23.70;99.90;;;;;;10257247;28;20238;-85
2023/07/30 10:18:38;;;;;;;3.20;3.00;;;23.80;99.90;;;;;;10255497;28;20229;-88
2023/07/30 10:23:47;;;;;;;3.53;3.23;;;23.90;99.90;;;;;;10252742;28;20245;-86
2023/07/30 10:29:10;;;;;;;2.77;2.67;;;24.00;99.90;;;;;;10268780;28;20201;-87
2023/07/30 10:34:12;;;;;;;2.87;2.67;;;23.80;99.90;;;;;;10274738;28;20284;-87
2023/07/30 10:39:17;;;;;;;4.77;2.70;;;23.70;99.90;;;;;;10265515;28;20221;-86
2023/07/30 10:44:23;;;;;;;3.20;2.90;;;23.80;99.90;;;;;;10265394;28;20223;-85
2023/07/30 10:49:26;;;;;;;2.70;2.50;;;23.90;99.90;;;;;;10252646;28;20550;-85
2023/07/30 10:54:34;;;;;;;2.90;2.70;;;23.90;99.90;;;;;;10260353;28;20197;-86
2023/07/30 10:59:38;;;;;;;3.03;2.90;;;23.80;99.90;;;;;;10262540;28;20287;-85
2023/07/30 11:04:40;;;;;;;2.70;2.60;;;23.50;99.90;;;;;;10260558;28;20200;-88
2023/07/30 11:09:44;;;;;;;2.70;2.60;;;23.30;99.90;;;;;;10282784;28;20296;-86
2023/07/30 11:14:48;;;;;;;2.70;2.60;;;23.30;99.90;;;;;;10256908;28;20271;-85
2023/07/30 11:19:50;;;;;;;3.80;3.60;;;23.40;99.90;;;;;;10260155;28;20356;-85
2023/07/30 11:24:53;;;;;;;3.47;3.27;;;23.50;99.90;;;;;;10245769;28;21531;-85
2023/07/30 11:29:57;;;;;;;3.63;2.60;;;23.50;99.90;;;;;;10252837;28;20716;-86
2023/07/30 11:35:00;;;;;;;3.50;2.87;;;23.60;99.90;;;;;;10263029;28;20212;-84
2023/07/30 11:40:02;;;;;;;3.83;2.47;;;23.60;99.90;;;;;;10254759;28;20260;-87
2023/07/30 11:45:23;;;;;;;2.87;2.50;;;23.40;99.90;;;;;;10253763;28;20621;-88
2023/07/30 11:50:25;;;;;;;3.83;3.47;;;23.00;99.90;;;;;;10255325;28;20221;-85
2023/07/30 11:55:38;;;;;;;2.83;2.63;;;22.80;99.90;;;;;;10261997;28;20213;-84
2023/07/30 12:00:44;;;;;;;3.10;2.90;;;22.60;99.90;;;;;;10263651;28;20297;-83
2023/07/30 12:05:50;;;;;;;3.43;3.03;;;22.50;99.90;;;;;;10273794;28;20740;-85
2023/07/30 12:10:52;;;;;;;3.00;2.80;;;22.40;99.90;;;;;;10258481;28;20229;-87
2023/07/30 12:15:57;;;;;;;2.97;2.77;;;22.30;99.90;;;;;;10258974;28;20206;-85
2023/07/30 12:20:59;;;;;;;3.00;2.80;;;22.40;99.90;;;;;;10269844;28;20232;-85
2023/07/30 12:26:04;;;;;;;3.23;2.57;;;22.40;99.90;;;;;;10252282;28;20207;-85
2023/07/30 12:31:07;;;;;;;3.03;2.73;;;22.50;99.90;;;;;;10262091;28;20217;-83
2023/07/30 12:36:09;;;;;;;3.50;2.90;;;22.40;99.90;;;;;;10278402;28;20197;-86
2023/07/30 12:41:11;;;;;;;4.20;2.90;;;22.50;99.90;;;;;;10278728;28;20225;-85
2023/07/30 12:46:14;;;;;;;2.60;2.50;;;22.60;99.90;;;;;;10280545;28;20301;-85
2023/07/30 12:51:17;;;;;;;3.00;2.70;;;22.80;99.90;;;;;;10274978;28;20291;-86
2023/07/30 12:56:19;;;;;;;2.80;2.60;;;23.00;99.90;;;;;;10297326;28;20229;-84
2023/07/30 13:01:23;;;;;;;3.87;3.10;;;23.20;99.90;;;;;;10295417;28;20221;-86
2023/07/30 13:06:25;;;;;;;3.13;2.93;;;23.10;99.90;;;;;;10283730;28;20235;-83
2023/07/30 13:11:27;;;;;;;2.70;2.53;;;23.00;99.90;;;;;;10279962;28;20255;-84
2023/07/30 13:16:32;;;;;;;2.90;2.63;;;23.00;99.90;;;;;;10280932;28;20371;-82
2023/07/30 13:21:34;;;;;;;4.70;2.87;;;22.90;99.90;;;;;;10277842;28;20261;-84
2023/07/30 13:26:38;;;;;;;3.37;3.07;;;22.80;99.90;;;;;;10269711;28;20255;-85
2023/07/30 13:31:41;;;;;;;3.03;2.83;;;22.70;99.90;;;;;;10284894;28;20296;-84
2023/07/30 13:36:44;;;;;;;3.90;3.60;;;22.70;99.90;;;;;;10258123;28;20235;-85
2023/07/30 13:41:53;;;;;;;3.20;2.90;;;22.60;99.90;;;;;;10281756;28;20235;-87
2023/07/30 13:46:59;;;;;;;2.97;2.77;;;22.60;99.90;;;;;;10280268;28;20201;-86
2023/07/30 13:52:05;;;;;;;5.23;2.53;;;22.70;99.90;;;;;;10284504;28;20228;-86
2023/07/30 13:57:17;;;;;;;3.77;3.00;;;22.80;99.90;;;;;;10274459;28;20202;-85
2023/07/30 14:02:32;;;;;;;3.70;3.40;;;22.90;99.90;;;;;;10276795;28;20300;-85
2023/07/30 14:07:36;;;;;;;3.87;3.57;;;23.10;99.90;;;;;;10286038;28;20922;-84
2023/07/30 14:12:38;;;;;;;2.97;2.77;;;23.30;99.90;;;;;;10276049;28;20217;-86
2023/07/30 14:17:48;;;;;;;3.37;2.63;;;23.20;99.90;;;;;;10277504;28;20212;-85
2023/07/30 14:22:51;;;;;;;3.10;2.60;;;23.10;99.90;;;;;;10269204;28;20304;-84
2023/07/30 14:27:53;;;;;;;2.60;2.40;;;23.00;99.90;;;;;;10263043;28;20225;-85
2023/07/30 14:32:57;;;;;;;2.60;2.40;;;23.00;99.90;;;;;;10272921;28;20327;-84
2023/07/30 14:37:59;;;;;;;3.50;2.50;;;22.90;99.90;;;;;;10270650;28;20264;-83
2023/07/30 14:43:01;;;;;;;3.03;2.80;;;22.80;99.90;;;;;;10267599;28;20224;-84
2023/07/30 14:48:05;;;;;;;3.40;2.43;;;22.80;99.90;;;;;;10270369;28;20209;-85
2023/07/30 14:53:07;;;;;;;2.37;2.17;;;22.80;99.90;;;;;;10276565;28;20287;-85
2023/07/30 14:58:10;;;;;;;4.60;2.70;;;22.90;99.90;;;;;;10277213;28;20253;-86
2023/07/30 15:03:13;;;;;;;2.50;2.30;;;22.90;99.90;;;;;;10267628;28;20239;-86
2023/07/30 15:08:15;;;;;;;3.20;2.40;;;22.90;99.90;;;;;;10256855;28;20650;-86
2023/07/30 15:13:17;;;;;;;3.73;2.50;;;23.00;99.90;;;;;;10249578;28;20245;-85
2023/07/30 15:18:21;;;;;;;2.73;2.50;;;23.00;99.90;;;;;;10251615;28;20312;-86
2023/07/30 15:23:23;;;;;;;2.90;2.60;;;22.90;99.90;;;;;;10253602;28;20236;-85
2023/07/30 15:28:25;;;;;;;2.00;1.90;;;22.90;99.90;;;;;;10249661;28;20834;-85
2023/07/30 15:33:29;;;;;;;2.20;2.07;;;22.80;99.90;;;;;;10256494;28;20217;-85
2023/07/30 15:38:31;;;;;;;2.40;1.93;;;22.70;99.00;;;;;;10273123;28;20722;-85
2023/07/30 15:43:33;;;;;;;4.93;2.03;;;22.70;98.50;;;;;;10254729;28;20229;-86
2023/07/30 15:48:36;;;;;;;2.90;2.37;;;22.60;97.70;;;;;;10254529;28;20196;-86
2023/07/30 15:53:39;;;;;;;2.63;2.07;;;22.40;97.60;;;;;;10253530;28;20647;-85
2023/07/30 15:58:41;;;;;;;2.50;2.40;;;22.40;97.00;;;;;;10251338;28;20253;-87
2023/07/30 16:03:44;;;;;;;3.23;2.87;;;22.30;99.50;;;;;;10250832;28;20232;-86
2023/07/30 16:08:46;;;;;;;2.20;2.00;;;22.20;98.00;;;;;;10253000;28;20653;-86
2023/07/30 16:13:49;;;;;;;3.83;2.27;;;22.10;98.40;;;;;;10262674;28;20248;-85
2023/07/30 16:18:52;;;;;;;2.53;2.33;;;22.10;97.30;;;;;;10248696;28;21481;-86
2023/07/30 16:23:54;;;;;;;4.23;2.53;;;22.00;98.00;;;;;;10278551;28;20241;-86
2023/07/30 16:28:56;;;;;;;3.03;2.30;;;22.00;98.90;;;;;;10260717;28;20688;-85
2023/07/30 16:34:00;;;;;;;3.00;2.50;;;21.90;98.00;;;;;;10257913;28;20801;-85
2023/07/30 16:39:04;;;;;;;2.47;2.10;;;22.00;97.20;;;;;;10249064;28;20233;-85
2023/07/30 16:44:06;;;;;;;3.47;2.50;;;21.90;97.60;;;;;;10247709;28;20236;-84
2023/07/30 16:49:09;;;;;;;3.40;2.30;;;21.80;96.90;;;;;;10233281;28;20205;-85
2023/07/30 16:54:13;;;;;;;3.67;2.43;;;21.80;95.90;;;;;;10281144;28;21097;-86
2023/07/30 16:59:15;;;;;;;2.93;2.30;;;21.80;97.60;;;;;;10258643;28;20217;-86
2023/07/30 17:04:19;;;;;;;4.30;2.10;;;21.80;96.30;;;;;;10269856;28;20212;-86
2023/07/30 17:09:23;;;;;;;2.83;2.10;;;21.70;95.40;;;;;;10251816;28;20202;-86
2023/07/30 17:14:25;;;;;;;3.20;1.93;;;21.70;94.70;;;;;;10255015;28;20207;-86
2023/07/30 17:19:29;;;;;;;3.13;2.13;;;21.60;99.20;;;;;;10270308;28;20235;-86
2023/07/30 17:24:33;;;;;;;4.00;2.43;;;21.70;97.10;;;;;;10247800;28;20343;-86
2023/07/30 17:29:35;;;;;;;2.50;2.17;;;21.70;94.50;;;;;;10251204;28;20229;-86
2023/07/30 17:34:39;;;;;;;4.00;2.40;;;21.80;96.10;;;;;;10255705;28;20267;-86
2023/07/30 17:39:41;;;;;;;3.87;2.13;;;21.80;95.70;;;;;;10254933;28;20232;-87
2023/07/30 17:44:44;;;;;;;3.67;2.27;;;21.80;94.10;;;;;;10253391;28;20208;-85
2023/07/30 17:49:48;;;;;;;3.73;2.67;;;21.70;97.70;;;;;;10253866;28;20723;-86
2023/07/30 17:54:50;;;;;;;4.30;2.27;;;21.60;96.20;;;;;;10255806;28;20204;-87
2023/07/30 17:59:52;;;;;;;2.33;2.13;;;21.50;95.00;;;;;;10247693;28;20231;-85
2023/07/30 18:04:56;;;;;;;2.50;1.77;;;21.50;95.10;;;;;;10257634;28;20311;-87
2023/07/30 18:09:58;;;;;;;2.93;2.10;;;21.40;95.90;;;;;;10255524;28;20229;-85
2023/07/30 18:15:00;;;;;;;2.50;2.30;;;21.30;96.70;;;;;;10253439;28;20205;-86
2023/07/30 18:20:05;;;;;;;3.10;2.20;;;21.20;99.90;;;;;;10253210;28;20255;-85
2023/07/30 18:25:08;;;;;;;3.30;2.50;;;21.20;97.70;;;;;;10252120;28;20209;-85
2023/07/30 18:30:11;;;;;;;2.50;2.30;;;21.10;99.90;;;;;;10259175;28;20702;-86
2023/07/30 18:35:14;;;;;;;1.87;1.77;;;21.00;99.80;;;;;;10253325;28;20320;-86
2023/07/30 18:40:18;;;;;;;3.07;2.43;;;21.00;99.70;;;;;;10248987;28;20232;-87
2023/07/30 18:45:20;;;;;;;4.67;3.27;;;20.90;99.90;;;;;;10268680;28;20228;-86
2023/07/30 18:50:24;;;;;;;3.33;2.40;;;20.90;99.90;;;;;;10245834;28;20236;-85
2023/07/30 18:55:26;;;;;;;3.00;2.53;;;20.90;99.90;;;;;;10250851;28;20229;-85
2023/07/30 19:00:28;;;;;;;3.90;2.50;;;20.90;99.90;;;;;;10263086;28;20256;-86
2023/07/30 19:05:31;;;;;;;2.43;2.33;;;20.80;99.90;;;;;;10256094;28;20212;-85
2023/07/30 19:10:33;;;;;;;3.13;2.93;;;20.70;99.90;;;;;;10255074;28;20388;-86
2023/07/30 19:15:36;;;;;;;2.93;2.73;;;20.70;99.90;;;;;;10257495;28;20215;-85
2023/07/30 19:20:40;;;;;;;3.63;2.90;;;20.70;99.90;;;;;;10255425;28;20315;-86
2023/07/30 19:25:47;;;;;;;2.40;2.30;;;20.70;99.90;;;;;;10255260;28;20224;-85
2023/07/30 19:30:49;;;;;;;3.03;2.37;;;20.60;99.90;;;;;;10256034;28;20240;-85
2023/07/30 19:35:53;;;;;;;3.43;2.63;;;20.50;99.90;;;;;;10254698;28;20205;-85
2023/07/30 19:40:55;;;;;;;3.00;2.70;;;20.50;99.90;;;;;;10257102;28;20630;-86
2023/07/30 19:45:57;;;;;;;3.57;2.87;;;20.40;99.90;;;;;;10258608;28;20491;-85
2023/07/30 19:51:00;;;;;;;2.77;2.17;;;20.30;99.90;;;;;;10256842;28;20245;-84
2023/07/30 19:56:04;;;;;;;5.80;2.83;;;20.20;99.90;;;;;;10260893;28;20213;-86
2023/07/30 20:01:09;;;;;;;4.47;2.67;;;20.10;99.90;;;;;;10263315;28;20229;-84
2023/07/30 20:06:18;;;;;;;9.70;2.30;;;20.10;99.90;;;;;;10245312;28;20202;-83
2023/07/30 20:11:24;;;;;;;5.73;2.20;;;20.00;99.90;;;;;;10260047;28;20281;-84
2023/07/30 20:16:26;;;;;;;2.10;2.00;;;19.90;99.90;;;;;;10253640;28;20257;-86
2023/07/30 20:21:29;;;;;;;3.80;2.13;;;19.90;99.90;;;;;;10265361;28;20248;-86
2023/07/30 20:26:32;;;;;;;5.17;3.30;;;19.80;99.90;;;;;;10253339;28;20209;-85
2023/07/30 20:31:36;;;;;;;4.00;2.47;;;19.70;99.90;;;;;;10265110;28;20224;-85
2023/07/30 20:36:39;;;;;;;2.60;2.40;;;19.60;99.90;;;;;;10258646;28;20320;-85
2023/07/30 20:41:42;;;;;;;2.17;1.97;;;19.50;99.90;;;;;;10255910;28;20240;-86
2023/07/30 20:46:44;;;;;;;6.47;4.93;;;19.40;99.90;;;;;;10254038;28;20204;-84
2023/07/30 20:51:47;;;;;;;2.63;2.43;;;19.40;99.90;;;;;;10262150;28;20221;-86
2023/07/30 20:56:49;;;;;;;3.33;2.70;;;19.40;99.90;;;;;;10265811;28;21558;-85
2023/07/30 21:01:51;;;;;;;4.60;2.27;;;19.30;99.90;;;;;;10267084;28;20236;-87
2023/07/30 21:06:55;;;;;;;4.63;2.53;;;19.30;99.90;;;;;;10250364;28;20205;-86
2023/07/30 21:11:57;;;;;;;3.13;2.43;;;19.20;99.90;;;;;;10250227;28;20237;-85
2023/07/30 21:16:59;;;;;;;4.10;2.60;;;19.20;99.90;;;;;;10263230;28;20272;-86
2023/07/30 21:22:03;;;;;;;2.83;2.63;;;19.20;99.90;;;;;;10256904;28;20253;-86
2023/07/30 21:27:05;;;;;;;4.37;2.37;;;19.10;99.90;;;;;;10248570;28;20238;-85
2023/07/30 21:32:07;;;;;;;3.57;3.33;;;19.10;99.90;;;;;;10253723;28;20245;-86
2023/07/30 21:37:11;;;;;;;2.60;2.40;;;19.10;99.90;;;;;;10264647;28;20237;-85
2023/07/30 21:42:13;;;;;;;3.70;2.00;;;19.10;99.90;;;;;;10264282;28;20716;-86
2023/07/30 21:47:15;;;;;;;7.60;2.60;;;19.00;99.90;;;;;;10272544;28;20631;-88
2023/07/30 21:52:27;;;;;;;2.70;2.30;;;19.00;99.90;;;;;;10263589;28;20224;-87
2023/07/30 21:57:29;;;;;;;5.60;2.80;;;18.90;99.90;;;;;;10259309;28;20213;-86
2023/07/30 22:02:31;;;;;;;4.27;3.27;;;18.80;99.90;;;;;;10252840;28;20236;-85
2023/07/30 22:07:34;;;;;;;3.70;3.40;;;18.80;99.90;;;;;;10251887;28;20228;-86
2023/07/30 22:12:36;;;;;;;2.70;2.50;;;18.80;99.90;;;;;;10253097;28;20224;-85
2023/07/30 22:56:28;;;;;;;3.50;2.87;;;18.60;99.90;;;;;;10069389;29;20234;-81
